PWSweather.com
Personal Weather Stations
Station Observations
N6QIH
Larry & Sandy Wx Now Hawaii, Ewa Beach, HI 96706

Larry & Sandy Wx Now HawaiiEwa Beach, HI 96706

Lat: 21.327716, Lon: -158.028032

Elevation: 29

Station Type: Davis Pro 2 Solar

http://www.CoCoRAHS.org

High Low Average
Temperature 82.7°F28.2°C 65.0°F18.3°C 73.8°F23.2°C
Dew Point 65.7°F18.7°C 59.1°F15.1°C 62.9°F17.2°C
Winds 3.6 mph 5.8 kmh Calm Calm 1.0 mph E1.6 kmh E
Wind Gusts 6.0 mph9.7 kmh -- 2.0 mph3.2 kmh
Humidity 90% 46% 71%
Pressure 30.02 in1016.6 mb 29.95 in1014.2 mb -
Precipitation 0.02 in0.5 mm - -
Hour Temp Dew Point Humidity Winds Wind Gusts Pressure Precip Precip Rate Daily Precip Total
03:30 AM 67.3°F19.6°C 63.3°F17.4°C 87% Calm Calm -- 29.96 in1014.6 mb 0.00 in0.0 mm 0.00 in/hr0.0 mm/hr 0.01 in0.3 mm
03:40 AM 67.6°F19.8°C 63.6°F17.6°C 87% Calm Calm -- 29.96 in1014.6 mb 0.00 in0.0 mm 0.00 in/hr0.0 mm/hr 0.01 in0.3 mm
05:10 AM 66.9°F19.4°C 62.6°F17.0°C 86% Calm Calm -- 29.95 in1014.2 mb 0.00 in0.0 mm 0.00 in/hr0.0 mm/hr 0.01 in0.3 mm
05:20 AM 66.4°F19.1°C 62.4°F16.9°C 87% 0.2 mph NE0.3 kmh NE 1.0 mph1.6 kmh 29.95 in1014.2 mb 0.00 in0.0 mm 0.00 in/hr0.0 mm/hr 0.01 in0.3 mm
05:30 AM 66.1°F18.9°C 62.1°F16.7°C 87% Calm Calm -- 29.96 in1014.6 mb 0.00 in0.0 mm 0.00 in/hr0.0 mm/hr 0.01 in0.3 mm
05:40 AM 66.0°F18.9°C 62.3°F16.8°C 88% Calm Calm -- 29.96 in1014.6 mb 0.00 in0.0 mm 0.00 in/hr0.0 mm/hr 0.01 in0.3 mm
05:50 AM 66.1°F18.9°C 62.8°F17.1°C 89% Calm Calm -- 29.96 in1014.6 mb 0.00 in0.0 mm 0.00 in/hr0.0 mm/hr 0.01 in0.3 mm
06:00 AM 66.0°F18.9°C 62.6°F17.0°C 89% Calm Calm -- 29.97 in1014.9 mb 0.00 in0.0 mm 0.00 in/hr0.0 mm/hr 0.01 in0.3 mm
06:10 AM 65.6°F18.7°C 62.3°F16.8°C 89% Calm Calm -- 29.97 in1014.9 mb 0.00 in0.0 mm 0.00 in/hr0.0 mm/hr 0.01 in0.3 mm
06:20 AM 65.6°F18.7°C 62.6°F17.0°C 90% Calm Calm -- 29.97 in1014.9 mb 0.00 in0.0 mm 0.00 in/hr0.0 mm/hr 0.01 in0.3 mm
06:30 AM 65.2°F18.4°C 61.9°F16.6°C 89% Calm Calm -- 29.97 in1014.9 mb 0.00 in0.0 mm 0.00 in/hr0.0 mm/hr 0.01 in0.3 mm
06:40 AM 65.0°F18.3°C 62.0°F16.7°C 90% Calm Calm -- 29.97 in1014.9 mb 0.00 in0.0 mm 0.00 in/hr0.0 mm/hr 0.01 in0.3 mm
06:50 AM 65.3°F18.5°C 62.3°F16.8°C 90% Calm Calm -- 29.98 in1015.2 mb 0.00 in0.0 mm 0.00 in/hr0.0 mm/hr 0.01 in0.3 mm
07:00 AM 65.5°F18.6°C 62.5°F16.9°C 90% Calm Calm -- 29.98 in1015.2 mb 0.00 in0.0 mm 0.00 in/hr0.0 mm/hr 0.01 in0.3 mm
07:10 AM 65.8°F18.8°C 62.8°F17.1°C 90% Calm Calm -- 29.99 in1015.6 mb 0.00 in0.0 mm 0.00 in/hr0.0 mm/hr 0.01 in0.3 mm
07:20 AM 66.0°F18.9°C 63.0°F17.2°C 90% Calm Calm -- 29.99 in1015.6 mb 0.00 in0.0 mm 0.00 in/hr0.0 mm/hr 0.01 in0.3 mm
07:30 AM 66.2°F19.0°C 63.1°F17.3°C 90% Calm Calm -- 29.99 in1015.6 mb 0.00 in0.0 mm 0.00 in/hr0.0 mm/hr 0.01 in0.3 mm
07:40 AM 66.7°F19.3°C 63.7°F17.6°C 90% Calm Calm -- 29.99 in1015.6 mb 0.00 in0.0 mm 0.00 in/hr0.0 mm/hr 0.01 in0.3 mm
07:50 AM 67.3°F19.6°C 63.9°F17.7°C 89% Calm Calm 1.0 mph1.6 kmh 30.00 in1015.9 mb 0.00 in0.0 mm 0.00 in/hr0.0 mm/hr 0.01 in0.3 mm
08:00 AM 68.4°F20.2°C 64.4°F18.0°C 87% Calm Calm -- 30.00 in1015.9 mb 0.00 in0.0 mm 0.00 in/hr0.0 mm/hr 0.01 in0.3 mm
08:10 AM 68.8°F20.4°C 64.4°F18.0°C 86% Calm Calm -- 30.00 in1015.9 mb 0.00 in0.0 mm 0.00 in/hr0.0 mm/hr 0.01 in0.3 mm
08:20 AM 69.1°F20.6°C 64.4°F18.0°C 85% Calm Calm -- 30.00 in1015.9 mb 0.00 in0.0 mm 0.00 in/hr0.0 mm/hr 0.01 in0.3 mm
08:30 AM 69.9°F21.1°C 64.8°F18.2°C 84% Calm Calm -- 30.00 in1015.9 mb 0.00 in0.0 mm 0.00 in/hr0.0 mm/hr 0.01 in0.3 mm
08:50 AM 72.7°F22.6°C 65.4°F18.6°C 78% Calm Calm -- 30.00 in1015.9 mb 0.00 in0.0 mm 0.00 in/hr0.0 mm/hr 0.01 in0.3 mm
09:00 AM 73.9°F23.3°C 65.5°F18.6°C 75% Calm Calm -- 30.01 in1016.3 mb 0.01 in0.3 mm 0.01 in/hr0.3 mm/hr 0.02 in0.5 mm
09:10 AM 74.4°F23.6°C 64.4°F18.0°C 71% 0.7 mph NE1.1 kmh NE 1.0 mph1.6 kmh 30.01 in1016.3 mb 0.00 in0.0 mm 0.00 in/hr0.0 mm/hr 0.02 in0.5 mm
09:20 AM 74.6°F23.7°C 64.2°F17.9°C 70% 2.4 mph E3.9 kmh E -- 30.02 in1016.6 mb 0.00 in0.0 mm 0.00 in/hr0.0 mm/hr 0.02 in0.5 mm
09:30 AM 75.8°F24.3°C 64.9°F18.3°C 69% 0.1 mph SE0.2 kmh SE 2.0 mph3.2 kmh 30.02 in1016.6 mb 0.00 in0.0 mm 0.00 in/hr0.0 mm/hr 0.02 in0.5 mm
09:40 AM 77.0°F25.0°C 64.8°F18.2°C 66% 0.8 mph ENE1.3 kmh ENE 3.0 mph4.8 kmh 30.02 in1016.6 mb 0.00 in0.0 mm 0.00 in/hr0.0 mm/hr 0.02 in0.5 mm
09:50 AM 77.0°F25.0°C 64.8°F18.2°C 66% 2.5 mph WSW4.0 kmh WSW 3.0 mph4.8 kmh 30.02 in1016.6 mb 0.00 in0.0 mm 0.00 in/hr0.0 mm/hr 0.02 in0.5 mm
10:00 AM 77.4°F25.2°C 64.3°F17.9°C 64% 0.4 mph E0.6 kmh E 2.0 mph3.2 kmh 30.02 in1016.6 mb 0.00 in0.0 mm 0.00 in/hr0.0 mm/hr 0.02 in0.5 mm
10:10 AM 77.4°F25.2°C 65.1°F18.4°C 66% 0.2 mph ENE0.3 kmh ENE 1.0 mph1.6 kmh 30.02 in1016.6 mb 0.00 in0.0 mm 0.00 in/hr0.0 mm/hr 0.02 in0.5 mm
10:20 AM 77.4°F25.2°C 64.7°F18.2°C 65% 0.1 mph ESE0.2 kmh ESE 1.0 mph1.6 kmh 30.02 in1016.6 mb 0.00 in0.0 mm 0.00 in/hr0.0 mm/hr 0.02 in0.5 mm
10:30 AM 77.9°F25.5°C 64.7°F18.2°C 64% 1.8 mph E2.9 kmh E 2.0 mph3.2 kmh 30.02 in1016.6 mb 0.00 in0.0 mm 0.00 in/hr0.0 mm/hr 0.02 in0.5 mm
10:40 AM 78.1°F25.6°C 64.0°F17.8°C 62% 0.9 mph NW1.4 kmh NW 2.0 mph3.2 kmh 30.02 in1016.6 mb 0.00 in0.0 mm 0.00 in/hr0.0 mm/hr 0.02 in0.5 mm
10:50 AM 79.0°F26.1°C 64.4°F18.0°C 61% Calm Calm 1.0 mph1.6 kmh 30.02 in1016.6 mb 0.00 in0.0 mm 0.00 in/hr0.0 mm/hr 0.02 in0.5 mm
11:00 AM 80.5°F26.9°C 63.9°F17.7°C 57% 3.0 mph N4.8 kmh N 5.0 mph8.0 kmh 30.02 in1016.6 mb 0.00 in0.0 mm 0.00 in/hr0.0 mm/hr 0.02 in0.5 mm
11:10 AM 80.3°F26.8°C 65.7°F18.7°C 61% 1.5 mph NE2.4 kmh NE 2.0 mph3.2 kmh 30.02 in1016.6 mb 0.00 in0.0 mm 0.00 in/hr0.0 mm/hr 0.02 in0.5 mm
11:20 AM 80.5°F26.9°C 64.4°F18.0°C 58% 2.2 mph NE3.5 kmh NE 2.0 mph3.2 kmh 30.02 in1016.6 mb 0.00 in0.0 mm 0.00 in/hr0.0 mm/hr 0.02 in0.5 mm
11:30 AM 80.8°F27.1°C 62.6°F17.0°C 54% 1.6 mph ENE2.6 kmh ENE 2.0 mph3.2 kmh 30.01 in1016.3 mb 0.00 in0.0 mm 0.00 in/hr0.0 mm/hr 0.02 in0.5 mm
11:40 AM 81.6°F27.6°C 61.7°F16.5°C 51% 2.6 mph ENE4.2 kmh ENE 4.0 mph6.4 kmh 30.01 in1016.3 mb 0.00 in0.0 mm 0.00 in/hr0.0 mm/hr 0.02 in0.5 mm
11:50 AM 81.6°F27.6°C 60.6°F15.9°C 49% 1.2 mph E1.9 kmh E 6.0 mph9.7 kmh 30.01 in1016.3 mb 0.00 in0.0 mm 0.00 in/hr0.0 mm/hr 0.02 in0.5 mm
12:00 PM 81.4°F27.4°C 59.8°F15.4°C 48% 3.6 mph NE5.8 kmh NE 3.0 mph4.8 kmh 30.00 in1015.9 mb 0.00 in0.0 mm 0.00 in/hr0.0 mm/hr 0.02 in0.5 mm
12:10 PM 82.2°F27.9°C 60.6°F15.9°C 48% 2.8 mph ENE4.5 kmh ENE 2.0 mph3.2 kmh 30.00 in1015.9 mb 0.00 in0.0 mm 0.00 in/hr0.0 mm/hr 0.02 in0.5 mm
12:20 PM 82.6°F28.1°C 61.5°F16.4°C 49% 2.8 mph ENE4.5 kmh ENE 4.0 mph6.4 kmh 30.00 in1015.9 mb 0.00 in0.0 mm 0.00 in/hr0.0 mm/hr 0.02 in0.5 mm
12:30 PM 81.8°F27.7°C 60.8°F16.0°C 49% 3.1 mph NE5.0 kmh NE 4.0 mph6.4 kmh 30.00 in1015.9 mb 0.00 in0.0 mm 0.00 in/hr0.0 mm/hr 0.02 in0.5 mm
12:40 PM 82.0°F27.8°C 59.1°F15.1°C 46% 3.6 mph ENE5.8 kmh ENE 5.0 mph8.0 kmh 30.00 in1015.9 mb 0.00 in0.0 mm 0.00 in/hr0.0 mm/hr 0.02 in0.5 mm
12:50 PM 81.6°F27.6°C 60.6°F15.9°C 49% 3.1 mph E5.0 kmh E 4.0 mph6.4 kmh 30.00 in1015.9 mb 0.00 in0.0 mm 0.00 in/hr0.0 mm/hr 0.02 in0.5 mm
01:00 PM 82.2°F27.9°C 59.4°F15.2°C 46% 2.5 mph NE4.0 kmh NE 4.0 mph6.4 kmh 29.99 in1015.6 mb 0.00 in0.0 mm 0.00 in/hr0.0 mm/hr 0.02 in0.5 mm
01:10 PM 81.6°F27.6°C 60.6°F15.9°C 49% 3.3 mph E5.3 kmh E 3.0 mph4.8 kmh 29.99 in1015.6 mb 0.00 in0.0 mm 0.00 in/hr0.0 mm/hr 0.02 in0.5 mm
01:20 PM 81.6°F27.6°C 61.2°F16.2°C 50% 2.0 mph N3.2 kmh N 3.0 mph4.8 kmh 29.98 in1015.2 mb 0.00 in0.0 mm 0.00 in/hr0.0 mm/hr 0.02 in0.5 mm
01:30 PM 82.7°F28.2°C 60.5°F15.8°C 47% 2.3 mph E3.7 kmh E 6.0 mph9.7 kmh 29.98 in1015.2 mb 0.00 in0.0 mm 0.00 in/hr0.0 mm/hr 0.02 in0.5 mm
01:40 PM 82.6°F28.1°C 61.5°F16.4°C 49% 3.2 mph NE5.1 kmh NE 4.0 mph6.4 kmh 29.98 in1015.2 mb 0.00 in0.0 mm 0.00 in/hr0.0 mm/hr 0.02 in0.5 mm
01:50 PM 82.0°F27.8°C 59.7°F15.4°C 47% 2.4 mph E3.9 kmh E 3.0 mph4.8 kmh 29.97 in1014.9 mb 0.00 in0.0 mm 0.00 in/hr0.0 mm/hr 0.02 in0.5 mm
02:00 PM 81.8°F27.7°C 58.4°F14.7°C 45% 3.5 mph SW5.6 kmh SW 3.0 mph4.8 kmh 29.97 in1014.9 mb 0.00 in0.0 mm 0.00 in/hr0.0 mm/hr 0.02 in0.5 mm
02:10 PM 82.0°F27.8°C 57.9°F14.4°C 44% 4.8 mph NE7.7 kmh NE 4.0 mph6.4 kmh 29.97 in1014.9 mb 0.00 in0.0 mm 0.00 in/hr0.0 mm/hr 0.02 in0.5 mm
02:20 PM 81.8°F27.7°C 57.1°F13.9°C 43% 3.5 mph ENE5.6 kmh ENE 6.0 mph9.7 kmh 29.97 in1014.9 mb 0.00 in0.0 mm 0.00 in/hr0.0 mm/hr 0.02 in0.5 mm
02:30 PM 81.6°F27.6°C 59.4°F15.2°C 47% 3.2 mph NE5.1 kmh NE 3.0 mph4.8 kmh 29.96 in1014.6 mb 0.00 in0.0 mm 0.00 in/hr0.0 mm/hr 0.02 in0.5 mm
02:40 PM 82.0°F27.8°C 60.4°F15.8°C 48% 4.1 mph ENE6.6 kmh ENE 7.0 mph11.3 kmh 29.96 in1014.6 mb 0.00 in0.0 mm 0.00 in/hr0.0 mm/hr 0.02 in0.5 mm
02:50 PM 82.8°F28.2°C 60.5°F15.8°C 47% 1.5 mph ENE2.4 kmh ENE 6.0 mph9.7 kmh 29.96 in1014.6 mb 0.00 in0.0 mm 0.00 in/hr0.0 mm/hr 0.02 in0.5 mm